createdAt,value
2018-11-05T00:00:54.392Z,9.86
2018-11-05T00:03:22.694Z,9.78
2018-11-05T00:05:51.005Z,9.72
2018-11-05T00:08:19.262Z,9.75
2018-11-05T00:10:47.714Z,9.80
2018-11-05T00:13:16.003Z,9.82
2018-11-05T00:15:44.302Z,9.81
2018-11-05T00:18:12.886Z,9.79
2018-11-05T00:20:41.214Z,9.76
2018-11-05T00:23:09.598Z,9.71
2018-11-05T00:25:37.997Z,9.70
2018-11-05T00:28:06.571Z,9.69
2018-11-05T00:30:35.039Z,9.71
2018-11-05T00:33:03.731Z,9.75
2018-11-05T00:35:32.006Z,9.79
2018-11-05T00:38:15.163Z,9.84
2018-11-05T00:40:43.444Z,9.85
2018-11-05T00:43:11.718Z,9.86
2018-11-05T00:45:40.138Z,9.86
2018-11-05T00:48:08.346Z,9.86
2018-11-05T00:50:36.630Z,9.85
2018-11-05T00:53:04.950Z,9.87
2018-11-05T00:55:33.351Z,9.90
2018-11-05T00:58:01.622Z,9.94
2018-11-05T01:00:30.054Z,9.93
2018-11-05T01:02:58.336Z,9.93
2018-11-05T01:05:26.606Z,9.91
2018-11-05T01:07:54.923Z,9.86
2018-11-05T01:10:23.210Z,9.85
2018-11-05T01:12:51.498Z,9.83
2018-11-05T01:15:19.798Z,9.79
2018-11-05T01:17:48.120Z,9.76
2018-11-05T01:20:16.754Z,9.79
2018-11-05T01:22:45.063Z,9.84
2018-11-05T01:25:13.564Z,9.85
2018-11-05T01:27:41.856Z,9.86
2018-11-05T01:30:11.766Z,9.86
2018-11-05T01:32:40.399Z,9.82
2018-11-05T01:35:10.834Z,9.73
2018-11-05T01:37:39.151Z,9.66
2018-11-05T01:40:09.326Z,9.56
2018-11-05T01:42:37.940Z,9.51
2018-11-05T01:45:07.489Z,9.49
2018-11-05T01:47:35.825Z,9.43
2018-11-05T01:50:04.205Z,9.43
2018-11-05T01:52:32.610Z,9.45
2018-11-05T01:55:00.894Z,9.45
2018-11-05T01:57:29.243Z,9.45
2018-11-05T01:59:57.854Z,9.49
2018-11-05T02:02:26.190Z,9.53
2018-11-05T02:04:54.458Z,9.56
2018-11-05T02:07:22.741Z,9.59
2018-11-05T02:09:51.030Z,9.59
2018-11-05T02:12:19.330Z,9.58
2018-11-05T02:14:47.918Z,9.61
2018-11-05T02:17:16.212Z,9.61
2018-11-05T02:19:44.813Z,9.60
2018-11-05T02:22:13.530Z,9.59
2018-11-05T02:24:41.824Z,9.58
2018-11-05T02:27:10.155Z,9.54
2018-11-05T02:29:38.402Z,9.46
2018-11-05T02:32:06.750Z,9.40
2018-11-05T02:34:35.024Z,9.34
2018-11-05T02:37:03.543Z,9.35
2018-11-05T02:39:31.814Z,9.33
2018-11-05T02:42:00.178Z,9.29
2018-11-05T02:50:27.858Z,9.14
2018-11-05T02:52:56.146Z,9.19
2018-11-05T02:55:24.642Z,9.25
2018-11-05T02:57:53.038Z,9.29
2018-11-05T03:00:21.354Z,9.33
2018-11-05T03:02:50.220Z,9.35
2018-11-05T03:05:19.653Z,9.36
2018-11-05T03:07:48.646Z,9.37
2018-11-05T03:10:17.203Z,9.39
2018-11-05T03:12:47.342Z,9.40
2018-11-05T03:15:16.802Z,9.39
2018-11-05T03:17:45.771Z,9.37
2018-11-05T03:20:15.039Z,9.39
2018-11-05T03:22:44.122Z,9.40
2018-11-05T03:25:12.406Z,9.38
2018-11-05T03:27:41.867Z,9.37
2018-11-05T03:30:13.125Z,9.34
2018-11-05T03:32:41.496Z,9.33
2018-11-05T03:35:11.099Z,9.30
2018-11-05T03:37:40.255Z,9.30
2018-11-05T03:40:09.546Z,9.31
2018-11-05T03:42:38.273Z,9.32
2018-11-05T03:45:07.789Z,9.29
2018-11-05T03:47:36.081Z,9.26
2018-11-05T03:50:05.942Z,9.19
2018-11-05T03:52:37.196Z,9.08
2018-11-05T03:55:05.912Z,9.02
2018-11-05T03:57:34.236Z,9.00
2018-11-05T04:00:02.549Z,9.00
2018-11-05T04:02:31.333Z,9.00
2018-11-05T04:04:59.730Z,9.00
2018-11-05T04:07:28.404Z,8.98
2018-11-05T04:09:56.839Z,8.95
2018-11-05T04:12:25.362Z,8.95
2018-11-05T04:14:53.643Z,8.97
2018-11-05T04:17:21.910Z,8.93
2018-11-05T04:19:50.217Z,8.93
2018-11-05T04:22:18.508Z,8.95
2018-11-05T04:24:46.853Z,8.92
2018-11-05T04:27:15.166Z,8.89
2018-11-05T04:29:43.490Z,8.85
2018-11-05T04:32:11.967Z,8.84
2018-11-05T04:34:40.367Z,8.86
2018-11-05T04:37:08.734Z,8.88
2018-11-05T04:39:37.206Z,8.87
2018-11-05T04:42:05.999Z,8.84
2018-11-05T04:44:34.396Z,8.81
2018-11-05T04:47:02.658Z,8.78
2018-11-05T04:49:31.073Z,8.72
2018-11-05T04:51:59.357Z,8.54
2018-11-05T04:54:34.205Z,8.38
2018-11-05T04:57:02.482Z,8.31
2018-11-05T04:59:30.775Z,8.23
2018-11-05T05:01:59.098Z,8.14
2018-11-05T05:04:27.421Z,8.04
2018-11-05T05:06:55.906Z,8.02
2018-11-05T05:09:24.226Z,8.03
2018-11-05T05:11:52.565Z,8.05
2018-11-05T05:14:20.953Z,8.11
2018-11-05T05:16:57.450Z,8.15
2018-11-05T05:19:25.801Z,8.18
2018-11-05T05:21:54.078Z,8.16
2018-11-05T05:24:22.509Z,8.19
2018-11-05T05:26:50.954Z,8.22
2018-11-05T05:29:19.317Z,8.21
2018-11-05T05:31:47.731Z,8.23
2018-11-05T05:34:16.005Z,8.23
2018-11-05T05:36:44.348Z,8.21
2018-11-05T05:39:12.871Z,8.08
2018-11-05T05:41:41.151Z,7.94
2018-11-05T05:44:09.444Z,7.76
2018-11-05T05:46:37.757Z,7.69
2018-11-05T05:49:06.146Z,7.72
2018-11-05T05:51:34.432Z,7.76
2018-11-05T05:54:02.741Z,7.82
2018-11-05T05:56:31.037Z,7.87
2018-11-05T05:58:59.303Z,7.91
2018-11-05T06:01:27.611Z,7.95
2018-11-05T06:03:56.347Z,7.95
2018-11-05T06:06:24.633Z,7.83
2018-11-05T06:08:52.913Z,7.73
2018-11-05T06:11:21.196Z,7.76
2018-11-05T06:13:49.504Z,7.79
2018-11-05T06:16:17.841Z,7.80
2018-11-05T06:18:46.215Z,7.78
2018-11-05T06:21:14.545Z,7.77
2018-11-05T06:23:42.953Z,7.73
2018-11-05T06:26:11.237Z,7.63
2018-11-05T06:28:40.403Z,7.55
2018-11-05T06:31:08.637Z,7.45
2018-11-05T06:33:37.057Z,7.40
2018-11-05T06:36:05.454Z,7.46
2018-11-05T06:38:33.834Z,7.56
2018-11-05T06:41:02.231Z,7.66
2018-11-05T06:43:30.475Z,7.71
2018-11-05T06:45:58.796Z,7.82
2018-11-05T06:48:27.096Z,7.88
2018-11-05T06:50:55.529Z,7.91
2018-11-05T06:53:23.829Z,7.96
2018-11-05T06:55:52.153Z,8.02
2018-11-05T06:58:20.643Z,8.05
2018-11-05T07:00:49.126Z,8.11
2018-11-05T07:03:18.257Z,8.11
2018-11-05T07:05:46.617Z,8.12
2018-11-05T07:08:15.057Z,8.15
2018-11-05T07:10:43.355Z,8.20
2018-11-05T07:13:11.641Z,8.25
2018-11-05T07:15:39.953Z,8.33
2018-11-05T07:18:08.279Z,8.42
2018-11-05T07:20:36.519Z,8.51
2018-11-05T07:23:04.853Z,8.60
2018-11-05T07:25:33.141Z,8.66
2018-11-05T07:28:01.421Z,8.69
2018-11-05T07:30:29.762Z,8.70
2018-11-05T07:32:58.055Z,8.72
2018-11-05T07:35:26.366Z,8.79
2018-11-05T07:37:54.681Z,8.87
2018-11-05T07:40:23.070Z,8.93
2018-11-05T07:42:51.358Z,8.91
2018-11-05T07:45:23.786Z,8.92
2018-11-05T07:47:52.162Z,8.98
2018-11-05T07:50:21.419Z,9.01
2018-11-05T07:52:50.047Z,9.02
2018-11-05T07:55:19.216Z,9.06
2018-11-05T07:57:48.423Z,9.15
2018-11-05T08:00:22.342Z,9.25
2018-11-05T08:02:52.340Z,9.35
2018-11-05T08:05:21.507Z,9.41
2018-11-05T08:07:50.037Z,9.50
2018-11-05T08:10:18.317Z,9.62
2018-11-05T08:12:46.695Z,9.75
2018-11-05T08:15:17.241Z,9.89
2018-11-05T08:17:46.641Z,10.02
2018-11-05T08:20:14.945Z,10.12
2018-11-05T08:22:43.381Z,10.22
2018-11-05T08:25:12.489Z,10.30
2018-11-05T08:27:40.829Z,10.40
2018-11-05T08:30:12.802Z,10.49
2018-11-05T08:32:41.241Z,10.58
2018-11-05T08:35:10.474Z,10.71
2018-11-05T08:37:38.813Z,10.80
2018-11-05T08:40:11.536Z,10.92
2018-11-05T08:42:40.398Z,11.09
2018-11-05T08:45:08.894Z,11.27
2018-11-05T08:47:37.742Z,11.43
2018-11-05T08:50:07.499Z,11.51
2018-11-05T08:52:35.861Z,11.53
2018-11-05T08:55:04.465Z,11.67
2018-11-05T08:57:32.834Z,11.81
2018-11-05T09:00:01.686Z,11.85
2018-11-05T09:02:30.081Z,11.91
2018-11-05T09:04:58.460Z,12.08
2018-11-05T09:07:26.679Z,12.34
2018-11-05T09:09:55.028Z,12.60
2018-11-05T09:12:23.938Z,12.83
2018-11-05T09:14:52.220Z,13.04
2018-11-05T09:17:20.542Z,13.21
2018-11-05T09:19:48.884Z,13.37
2018-11-05T09:22:17.150Z,13.53
2018-11-05T09:24:45.453Z,13.71
2018-11-05T09:27:13.886Z,13.84
2018-11-05T09:29:42.162Z,13.95
2018-11-05T09:32:10.443Z,14.06
2018-11-05T09:34:39.102Z,14.15
2018-11-05T09:37:07.399Z,14.25
2018-11-05T09:39:35.762Z,14.34
2018-11-05T09:42:04.236Z,14.43
2018-11-05T09:44:32.514Z,14.51
2018-11-05T09:47:00.775Z,14.57
2018-11-05T09:49:29.275Z,14.65
2018-11-05T09:51:57.495Z,14.71
2018-11-05T09:54:25.773Z,14.81
2018-11-05T09:56:54.075Z,14.88
2018-11-05T09:59:22.474Z,14.96
2018-11-05T10:01:50.858Z,15.07
2018-11-05T10:04:19.266Z,15.13
2018-11-05T10:06:47.434Z,15.19
2018-11-05T10:09:15.778Z,15.24
2018-11-05T10:11:44.225Z,15.31
2018-11-05T10:14:12.546Z,15.36
2018-11-05T10:16:40.840Z,15.42
2018-11-05T10:19:09.250Z,15.52
2018-11-05T10:21:37.601Z,15.63
2018-11-05T10:24:07.097Z,15.72
2018-11-05T10:26:35.488Z,15.81
2018-11-05T10:29:03.865Z,15.86
2018-11-05T10:31:32.224Z,15.93
2018-11-05T10:34:00.589Z,16.02
2018-11-05T10:36:29.067Z,16.11
2018-11-05T10:38:57.540Z,16.21
2018-11-05T10:41:26.331Z,16.28
2018-11-05T10:43:55.473Z,16.36
2018-11-05T10:46:24.532Z,16.47
2018-11-05T10:48:52.642Z,16.60
2018-11-05T10:51:21.035Z,16.74
2018-11-05T10:53:49.258Z,16.89
2018-11-05T10:56:17.782Z,17.02
2018-11-05T10:58:46.066Z,17.15
2018-11-05T11:01:15.438Z,17.27
2018-11-05T11:03:49.189Z,17.37
2018-11-05T11:06:17.490Z,17.44
2018-11-05T11:08:45.770Z,17.51
2018-11-05T11:11:14.165Z,17.60
2018-11-05T11:13:42.535Z,17.64
2018-11-05T11:16:10.915Z,17.73
2018-11-05T11:18:39.383Z,17.82
2018-11-05T11:21:07.691Z,17.92
2018-11-05T11:23:35.970Z,17.97
2018-11-05T11:26:04.451Z,18.03
2018-11-05T11:28:32.835Z,18.15
2018-11-05T11:31:01.173Z,18.23
2018-11-05T11:33:29.991Z,18.32
2018-11-05T11:35:58.871Z,18.44
2018-11-05T11:38:27.239Z,18.57
2018-11-05T11:40:56.243Z,18.63
2018-11-05T11:43:24.624Z,18.72
2018-11-05T11:45:52.953Z,18.83
2018-11-05T11:48:21.289Z,18.86
2018-11-05T11:50:49.753Z,18.87
2018-11-05T11:53:18.233Z,18.89
2018-11-05T11:55:46.544Z,18.95
2018-11-05T11:58:14.839Z,19.02
2018-11-05T12:00:43.122Z,19.06
2018-11-05T12:03:11.443Z,19.13
2018-11-05T12:05:40.123Z,19.19
2018-11-05T12:08:08.487Z,19.25
2018-11-05T12:10:36.981Z,19.34
2018-11-05T12:13:05.420Z,19.40
2018-11-05T12:15:34.601Z,19.47
2018-11-05T12:18:02.950Z,19.51
2018-11-05T12:20:31.859Z,19.54
2018-11-05T12:23:00.190Z,19.58
2018-11-05T12:25:28.613Z,19.64
2018-11-05T12:27:57.142Z,19.68
2018-11-05T12:30:25.534Z,19.74
2018-11-05T12:32:54.738Z,19.81
2018-11-05T12:35:23.137Z,19.89
2018-11-05T12:37:52.501Z,19.97
2018-11-05T12:40:21.774Z,20.03
2018-11-05T12:42:50.742Z,20.09
2018-11-05T12:45:19.117Z,20.17
2018-11-05T12:47:47.624Z,20.23
2018-11-05T12:50:18.538Z,20.28
2018-11-05T12:52:47.738Z,20.31
2018-11-05T12:55:16.138Z,20.34
2018-11-05T12:57:44.689Z,20.36
2018-11-05T13:00:15.477Z,20.39
2018-11-05T13:02:44.808Z,20.42
2018-11-05T13:05:14.071Z,20.50
2018-11-05T13:07:42.401Z,20.55
2018-11-05T13:10:12.464Z,20.59
2018-11-05T13:12:41.148Z,20.63
2018-11-05T13:15:10.476Z,20.67
2018-11-05T13:17:39.684Z,20.70
2018-11-05T13:20:16.629Z,20.74
2018-11-05T13:22:45.114Z,20.78
2018-11-05T13:25:13.554Z,20.78
2018-11-05T13:27:43.494Z,20.80
2018-11-05T13:30:12.725Z,20.85
2018-11-05T13:32:41.601Z,20.95
2018-11-05T13:35:12.091Z,21.00
2018-11-05T13:37:41.031Z,21.01
2018-11-05T13:40:12.249Z,21.05
2018-11-05T13:42:40.774Z,21.10
2018-11-05T13:45:10.678Z,21.08
2018-11-05T13:47:40.091Z,21.13
2018-11-05T13:50:09.030Z,21.13
2018-11-05T13:52:37.597Z,21.10
2018-11-05T13:55:06.804Z,21.05
2018-11-05T13:57:35.085Z,21.02
2018-11-05T14:00:03.839Z,20.96
2018-11-05T14:02:32.227Z,20.95
2018-11-05T14:05:00.566Z,20.93
2018-11-05T14:07:28.895Z,21.01
2018-11-05T14:09:57.208Z,21.13
2018-11-05T14:12:25.485Z,21.21
2018-11-05T14:14:53.815Z,21.26
2018-11-05T14:17:22.171Z,21.26
2018-11-05T14:19:50.531Z,21.28
2018-11-05T14:22:19.351Z,21.29
2018-11-05T14:24:47.703Z,21.28
2018-11-05T14:27:16.054Z,21.23
2018-11-05T14:29:44.944Z,21.18
2018-11-05T14:32:12.711Z,21.01
2018-11-05T14:34:40.941Z,20.76
2018-11-05T14:37:09.440Z,20.46
2018-11-05T14:39:37.771Z,20.19
2018-11-05T14:42:06.357Z,19.95
2018-11-05T14:44:34.778Z,19.76
2018-11-05T14:47:03.150Z,19.56
2018-11-05T14:49:31.421Z,19.37
2018-11-05T14:51:59.810Z,19.20
2018-11-05T14:54:28.151Z,19.03
2018-11-05T14:56:56.413Z,18.90
2018-11-05T14:59:25.797Z,18.78
2018-11-05T15:01:59.526Z,18.73
2018-11-05T15:04:27.929Z,18.66
2018-11-05T15:06:56.289Z,18.59
2018-11-05T15:09:24.553Z,18.54
2018-11-05T15:11:52.902Z,18.50
2018-11-05T15:14:21.173Z,18.46
2018-11-05T15:16:49.482Z,18.37
2018-11-05T15:19:18.365Z,18.29
2018-11-05T15:21:46.260Z,18.23
2018-11-05T15:24:14.638Z,18.17
2018-11-05T15:26:43.122Z,18.15
2018-11-05T15:29:11.626Z,18.10
2018-11-05T15:31:39.984Z,18.06
2018-11-05T15:34:08.662Z,18.04
2018-11-05T15:36:37.033Z,18.02
2018-11-05T15:39:07.510Z,17.99
2018-11-05T15:41:36.261Z,17.94
2018-11-05T15:44:05.210Z,17.91
2018-11-05T15:46:33.731Z,17.88
2018-11-05T15:49:02.113Z,17.85
2018-11-05T15:51:30.600Z,17.84
2018-11-05T15:53:59.515Z,17.81
2018-11-05T15:56:28.678Z,17.76
2018-11-05T15:58:57.038Z,17.71
2018-11-05T16:01:25.346Z,17.68
2018-11-05T16:03:54.433Z,17.66
2018-11-05T16:06:22.986Z,17.62
2018-11-05T16:08:51.296Z,17.58
2018-11-05T16:11:19.616Z,17.56
2018-11-05T16:13:47.965Z,17.50
2018-11-05T16:16:16.239Z,17.44
2018-11-05T16:18:44.624Z,17.39
2018-11-05T16:21:12.966Z,17.36
2018-11-05T16:23:41.964Z,17.32
2018-11-05T16:26:10.378Z,17.28
2018-11-05T16:28:38.646Z,17.25
2018-11-05T16:31:07.200Z,17.20
2018-11-05T16:33:35.722Z,17.17
2018-11-05T16:36:04.059Z,17.10
2018-11-05T16:38:33.093Z,17.06
2018-11-05T16:41:01.471Z,17.00
2018-11-05T16:43:29.758Z,16.97
2018-11-05T16:45:58.106Z,16.92
2018-11-05T16:48:26.481Z,16.88
2018-11-05T16:50:54.777Z,16.84
2018-11-05T16:53:23.054Z,16.79
2018-11-05T16:55:51.454Z,16.77
2018-11-05T16:58:19.768Z,16.76
2018-11-05T17:00:48.165Z,16.74
2018-11-05T17:03:16.606Z,16.73
2018-11-05T17:05:44.874Z,16.71
2018-11-05T17:08:13.297Z,16.70
2018-11-05T17:10:41.709Z,16.66
2018-11-05T17:13:09.994Z,16.65
2018-11-05T17:15:38.250Z,16.61
2018-11-05T17:18:06.594Z,16.56
2018-11-05T17:20:35.006Z,16.48
2018-11-05T17:23:03.282Z,16.43
2018-11-05T17:25:31.582Z,16.37
2018-11-05T17:27:59.857Z,16.34
2018-11-05T17:30:28.246Z,16.32
2018-11-05T17:32:56.766Z,16.33
2018-11-05T17:35:25.085Z,16.33
2018-11-05T17:37:53.417Z,16.32
2018-11-05T17:40:22.792Z,16.28
2018-11-05T17:42:51.126Z,16.27
2018-11-05T17:45:20.137Z,16.26
2018-11-05T17:47:48.838Z,16.27
2018-11-05T17:50:18.576Z,16.26
2018-11-05T17:52:47.063Z,16.27
2018-11-05T17:55:15.743Z,16.27
2018-11-05T17:57:45.217Z,16.24
2018-11-05T18:00:16.441Z,16.20
2018-11-05T18:02:44.793Z,16.14
2018-11-05T18:05:13.445Z,16.08
2018-11-05T18:07:42.164Z,16.03
2018-11-05T18:10:10.458Z,15.96
2018-11-05T18:12:39.389Z,15.91
2018-11-05T18:15:09.623Z,15.86
2018-11-05T18:17:38.246Z,15.81
2018-11-05T18:20:08.698Z,15.75
2018-11-05T18:22:38.086Z,15.71
2018-11-05T18:25:08.210Z,15.68
2018-11-05T18:27:37.173Z,15.65
2018-11-05T18:30:07.011Z,15.60
2018-11-05T18:32:35.394Z,15.52
2018-11-05T18:35:03.806Z,15.49
2018-11-05T18:37:32.595Z,15.47
2018-11-05T18:40:01.046Z,15.43
2018-11-05T18:42:29.340Z,15.41
2018-11-05T18:44:58.018Z,15.40
2018-11-05T18:47:26.334Z,15.39
2018-11-05T18:49:54.756Z,15.36
2018-11-05T18:52:23.113Z,15.33
2018-11-05T18:54:51.498Z,15.30
2018-11-05T18:57:19.790Z,15.28
2018-11-05T18:59:48.162Z,15.26
2018-11-05T19:02:21.834Z,15.25
2018-11-05T19:04:50.457Z,15.23
2018-11-05T19:07:18.806Z,15.21
2018-11-05T19:09:47.285Z,15.19
2018-11-05T19:12:15.678Z,15.15
2018-11-05T19:14:43.945Z,15.14
2018-11-05T19:17:12.883Z,15.14
2018-11-05T19:19:41.225Z,15.13
2018-11-05T19:22:09.574Z,15.12
2018-11-05T19:24:37.942Z,15.12
2018-11-05T19:27:06.718Z,15.12
2018-11-05T19:29:35.031Z,15.12
2018-11-05T19:32:03.405Z,15.10
2018-11-05T19:34:31.913Z,15.07
2018-11-05T19:37:00.233Z,15.04
2018-11-05T19:39:28.526Z,15.02
2018-11-05T19:41:56.876Z,14.99
2018-11-05T19:44:25.197Z,14.98
2018-11-05T19:46:53.565Z,14.95
2018-11-05T19:49:22.082Z,14.92
2018-11-05T19:51:51.047Z,14.89
2018-11-05T19:54:19.427Z,14.85
2018-11-05T19:56:47.911Z,14.82
2018-11-05T19:59:16.361Z,14.80
2018-11-05T20:01:45.133Z,14.75
2018-11-05T20:04:13.703Z,14.71
2018-11-05T20:06:42.225Z,14.69
2018-11-05T20:09:10.610Z,14.69
2018-11-05T20:11:39.238Z,14.72
2018-11-05T20:14:07.595Z,14.78
2018-11-05T20:16:36.015Z,14.84
2018-11-05T20:19:04.635Z,14.89
2018-11-05T20:21:32.929Z,14.94
2018-11-05T20:24:01.387Z,14.99
2018-11-05T20:26:29.981Z,15.01
2018-11-05T20:28:58.495Z,15.02
2018-11-05T20:31:27.203Z,15.00
2018-11-05T20:33:55.634Z,14.97
2018-11-05T20:36:23.645Z,14.95
2018-11-05T20:38:51.944Z,14.93
2018-11-05T20:41:20.316Z,14.90
2018-11-05T20:43:48.737Z,14.93
2018-11-05T20:46:17.177Z,14.95
2018-11-05T20:48:46.074Z,14.99
2018-11-05T20:51:14.487Z,15.04
2018-11-05T20:53:42.897Z,15.11
2018-11-05T20:56:11.218Z,15.15
2018-11-05T20:58:39.585Z,15.19
2018-11-05T21:01:08.148Z,15.15
2018-11-05T21:03:36.492Z,15.17
2018-11-05T21:06:05.094Z,15.23
2018-11-05T21:08:33.370Z,15.25
2018-11-05T21:11:02.219Z,15.31
2018-11-05T21:13:31.658Z,15.30
2018-11-05T21:16:00.014Z,15.28
2018-11-05T21:18:28.598Z,15.28
2018-11-05T21:20:56.976Z,15.27
2018-11-05T21:23:25.962Z,15.24
2018-11-05T21:25:54.290Z,15.20
2018-11-05T21:28:22.591Z,15.19
2018-11-05T21:30:51.798Z,15.20
2018-11-05T21:33:20.215Z,15.21
2018-11-05T21:35:48.563Z,15.23
2018-11-05T21:38:16.833Z,15.25
2018-11-05T21:40:45.346Z,15.26
2018-11-05T21:43:13.682Z,15.25
2018-11-05T21:45:42.798Z,15.27
2018-11-05T21:48:11.102Z,15.26
2018-11-05T21:50:39.454Z,15.27
2018-11-05T21:53:07.733Z,15.27
2018-11-05T21:55:36.058Z,15.28
2018-11-05T21:58:04.526Z,15.29
2018-11-05T22:00:32.845Z,15.28
2018-11-05T22:03:02.665Z,15.28
2018-11-05T22:05:31.460Z,15.29
2018-11-05T22:07:59.725Z,15.29
2018-11-05T22:10:28.630Z,15.29
2018-11-05T22:12:57.389Z,15.28
2018-11-05T22:15:29.877Z,15.29
2018-11-05T22:17:58.566Z,15.31
2018-11-05T22:20:26.854Z,15.32
2018-11-05T22:22:55.138Z,15.35
2018-11-05T22:25:23.422Z,15.39
2018-11-05T22:27:51.693Z,15.39
2018-11-05T22:30:20.106Z,15.40
2018-11-05T22:32:48.427Z,15.43
2018-11-05T22:35:16.921Z,15.42
2018-11-05T22:37:45.338Z,15.43
2018-11-05T22:40:14.618Z,15.48
2018-11-05T22:42:42.986Z,15.49
2018-11-05T22:45:12.975Z,15.50
2018-11-05T22:47:41.850Z,15.54
2018-11-05T22:50:10.264Z,15.61
2018-11-05T22:52:39.254Z,15.65
2018-11-05T22:55:07.965Z,15.66
2018-11-05T22:57:36.327Z,15.64
2018-11-05T23:00:08.194Z,15.35
2018-11-05T23:02:36.477Z,15.05
2018-11-05T23:05:05.283Z,14.94
2018-11-05T23:07:33.697Z,15.00
2018-11-05T23:10:02.108Z,15.10
2018-11-05T23:12:30.479Z,15.21
2018-11-05T23:14:58.875Z,15.28
2018-11-05T23:17:27.228Z,15.33
2018-11-05T23:19:55.513Z,15.27
2018-11-05T23:22:23.853Z,15.12
2018-11-05T23:24:52.135Z,14.92
2018-11-05T23:27:20.441Z,14.71
2018-11-05T23:29:49.437Z,14.61
2018-11-05T23:32:17.791Z,14.49
2018-11-05T23:34:46.081Z,14.40
2018-11-05T23:37:14.505Z,14.60
2018-11-05T23:39:42.781Z,14.88
2018-11-05T23:42:11.065Z,15.03
2018-11-05T23:44:39.365Z,15.16
2018-11-05T23:47:07.644Z,15.27
2018-11-05T23:49:36.234Z,15.34
2018-11-05T23:52:04.669Z,15.37
2018-11-05T23:54:32.926Z,15.41
2018-11-05T23:57:01.203Z,15.41
2018-11-05T23:59:29.584Z,15.45
